Time;durP1;ratioP1;P1;durP2;ratioP2;P2;SDS_P1;SDS_P2;PMS_P1;PMS_P2;Temp;Humidity;BMP_temperature;BMP_pressure;BME280_temperature;BME280_humidity;BME280_pressure;Samples;Min_cycle;Max_cycle;Signal;HPM_P1;HPM_P2
2022/07/07 00:01:38;;;;;;;8.10;4.53;;;18.70;99.90;;;;;;5074652;28;20356;-67
2022/07/07 00:04:04;;;;;;;6.63;4.65;;;18.70;99.90;;;;;;5066567;28;20527;-69
2022/07/07 00:06:30;;;;;;;8.40;4.65;;;18.70;99.90;;;;;;5052618;28;20100;-69
2022/07/07 00:08:57;;;;;;;7.68;4.45;;;18.70;99.90;;;;;;5052515;28;20536;-69
2022/07/07 00:11:24;;;;;;;8.25;4.78;;;18.80;99.90;;;;;;5052135;28;20060;-71
2022/07/07 00:13:50;;;;;;;16.65;4.88;;;18.80;99.90;;;;;;5052222;28;20075;-70
2022/07/07 00:16:16;;;;;;;8.32;4.80;;;18.80;99.90;;;;;;5052544;28;20061;-70
2022/07/07 00:18:42;;;;;;;11.07;4.65;;;18.70;99.90;;;;;;5051468;28;20075;-70
2022/07/07 00:21:09;;;;;;;9.52;5.38;;;18.70;99.90;;;;;;5052750;28;20063;-68
2022/07/07 00:23:35;;;;;;;9.35;4.88;;;18.70;99.90;;;;;;5052340;28;20391;-71
2022/07/07 00:26:01;;;;;;;6.93;4.57;;;18.60;99.90;;;;;;5052657;28;20025;-72
2022/07/07 00:28:27;;;;;;;7.35;4.28;;;18.60;99.90;;;;;;5050989;28;20523;-70
2022/07/07 00:30:53;;;;;;;9.15;5.28;;;18.60;99.90;;;;;;5052422;28;20021;-67
2022/07/07 00:33:19;;;;;;;8.15;4.93;;;18.60;99.90;;;;;;5052573;28;20033;-73
2022/07/07 00:35:45;;;;;;;7.43;5.00;;;18.60;99.90;;;;;;5051986;28;20078;-66
2022/07/07 00:38:10;;;;;;;9.13;4.72;;;18.50;99.90;;;;;;5052021;28;20070;-69
2022/07/07 00:40:36;;;;;;;12.95;4.72;;;18.50;99.90;;;;;;5052072;28;20021;-72
2022/07/07 00:43:04;;;;;;;8.40;5.40;;;18.50;99.90;;;;;;5052704;28;20892;-72
2022/07/07 00:45:30;;;;;;;6.45;4.32;;;18.60;99.90;;;;;;5052158;28;20483;-71
2022/07/07 00:47:58;;;;;;;4.88;4.00;;;18.60;99.90;;;;;;5051816;28;20028;-67
2022/07/07 00:50:24;;;;;;;9.00;5.45;;;18.50;99.90;;;;;;5053093;28;20021;-72
2022/07/07 00:52:50;;;;;;;8.60;4.88;;;18.60;99.90;;;;;;5051924;28;20021;-70
2022/07/07 00:55:16;;;;;;;7.60;4.88;;;18.40;99.90;;;;;;5051429;28;20033;-70
2022/07/07 00:57:42;;;;;;;8.85;4.90;;;18.40;99.90;;;;;;5051611;28;20025;-71
2022/07/07 01:00:11;;;;;;;10.88;5.43;;;18.30;99.90;;;;;;5051641;28;20021;-69
2022/07/07 01:02:38;;;;;;;7.43;4.70;;;18.30;99.90;;;;;;5051803;28;20095;-71
2022/07/07 01:05:07;;;;;;;13.07;5.78;;;18.30;99.90;;;;;;5051623;28;20024;-71
2022/07/07 01:07:33;;;;;;;10.43;4.90;;;18.20;99.90;;;;;;5051443;28;20032;-72
2022/07/07 01:10:00;;;;;;;7.72;5.63;;;18.00;99.90;;;;;;5051283;28;20056;-68
2022/07/07 01:12:32;;;;;;;8.10;4.80;;;18.00;99.90;;;;;;5051544;28;20041;-69
2022/07/07 01:14:58;;;;;;;8.80;4.82;;;18.00;99.90;;;;;;5051593;28;20033;-69
2022/07/07 01:17:23;;;;;;;7.13;4.82;;;18.00;99.90;;;;;;5051377;28;20033;-70
2022/07/07 01:19:49;;;;;;;8.40;5.10;;;18.00;99.90;;;;;;5051571;28;20029;-72
2022/07/07 01:22:17;;;;;;;5.22;4.57;;;17.90;99.90;;;;;;5051445;28;20029;-67
2022/07/07 01:24:43;;;;;;;8.02;5.28;;;17.90;99.90;;;;;;5051361;28;20064;-72
2022/07/07 01:27:17;;;;;;;7.20;5.03;;;17.90;99.90;;;;;;5054668;28;20056;-72
2022/07/07 01:29:46;;;;;;;9.88;5.00;;;17.90;99.90;;;;;;5051278;28;20025;-69
2022/07/07 01:32:12;;;;;;;7.70;4.63;;;17.80;99.90;;;;;;5051208;28;20033;-72
2022/07/07 01:34:41;;;;;;;8.05;4.63;;;17.90;99.90;;;;;;5054861;28;20064;-71
2022/07/07 01:37:07;;;;;;;10.80;5.22;;;17.90;99.90;;;;;;5051608;28;20024;-68
2022/07/07 01:39:34;;;;;;;7.78;5.38;;;17.90;99.90;;;;;;5050535;28;20449;-72
2022/07/07 01:42:00;;;;;;;6.28;4.78;;;17.90;99.90;;;;;;5051010;28;20023;-67
2022/07/07 01:44:26;;;;;;;6.38;4.47;;;18.00;99.90;;;;;;5052990;28;20025;-71
2022/07/07 01:46:52;;;;;;;6.68;4.40;;;17.90;99.90;;;;;;5052029;28;20551;-73
2022/07/07 01:49:18;;;;;;;6.45;4.55;;;17.90;99.90;;;;;;5050972;28;20029;-69
2022/07/07 01:51:44;;;;;;;9.40;5.00;;;17.90;99.90;;;;;;5051186;28;20016;-70
2022/07/07 01:54:10;;;;;;;8.57;5.25;;;17.80;99.90;;;;;;5082806;28;20103;-72
2022/07/07 01:56:37;;;;;;;11.13;5.18;;;17.80;99.90;;;;;;5050747;28;20021;-72
2022/07/07 01:59:03;;;;;;;7.93;5.22;;;17.70;99.90;;;;;;5050955;28;20044;-71
2022/07/07 02:01:29;;;;;;;7.85;4.55;;;17.80;99.90;;;;;;5051159;28;20017;-73
2022/07/07 02:03:54;;;;;;;8.45;5.15;;;17.70;99.90;;;;;;5051048;28;20035;-69
2022/07/07 02:06:20;;;;;;;8.00;4.55;;;17.80;99.90;;;;;;5050727;28;20025;-68
2022/07/07 02:08:46;;;;;;;8.75;4.68;;;17.70;99.90;;;;;;5050401;28;20025;-71
2022/07/07 02:11:12;;;;;;;10.45;5.38;;;17.70;99.90;;;;;;5049932;28;20048;-69
2022/07/07 02:13:48;;;;;;;7.35;4.95;;;17.80;99.90;;;;;;5050413;28;20079;-72
2022/07/07 02:16:16;;;;;;;8.32;5.10;;;17.80;99.90;;;;;;5050652;28;20261;-69
2022/07/07 02:18:44;;;;;;;8.15;5.28;;;17.80;99.90;;;;;;5050396;28;20032;-68
2022/07/07 02:21:11;;;;;;;7.93;4.53;;;17.70;99.90;;;;;;5050557;28;20025;-66
2022/07/07 02:23:38;;;;;;;9.38;5.20;;;17.80;99.90;;;;;;5050375;28;20074;-71
2022/07/07 02:26:04;;;;;;;8.52;4.97;;;17.70;99.90;;;;;;5053106;28;20029;-72
2022/07/07 02:28:30;;;;;;;8.70;4.70;;;17.70;99.90;;;;;;5050441;28;20025;-70
2022/07/07 02:30:58;;;;;;;8.30;5.07;;;17.70;99.90;;;;;;5054826;28;20032;-71
2022/07/07 02:33:25;;;;;;;5.63;4.50;;;17.70;99.90;;;;;;5050686;28;20025;-70
2022/07/07 02:35:52;;;;;;;6.70;4.97;;;17.60;99.90;;;;;;5050470;28;20029;-73
2022/07/07 02:38:18;;;;;;;9.43;5.50;;;17.60;99.90;;;;;;5050482;28;20134;-68
2022/07/07 02:40:44;;;;;;;9.57;5.18;;;17.70;99.90;;;;;;5050236;28;20032;-72
2022/07/07 02:43:13;;;;;;;9.52;5.50;;;17.50;99.90;;;;;;5051464;28;20472;-72
2022/07/07 02:45:43;;;;;;;8.40;4.63;;;17.60;99.90;;;;;;5054778;28;20490;-70
2022/07/07 02:48:10;;;;;;;9.10;4.90;;;17.70;99.90;;;;;;5050329;28;20490;-69
2022/07/07 02:50:37;;;;;;;9.48;5.35;;;17.60;99.90;;;;;;5051548;28;20079;-72
2022/07/07 02:53:04;;;;;;;8.50;5.30;;;17.60;99.90;;;;;;5054189;28;20107;-71
2022/07/07 02:55:30;;;;;;;7.65;4.53;;;17.60;99.90;;;;;;5053915;28;20025;-71
2022/07/07 02:57:57;;;;;;;8.60;4.90;;;17.60;99.90;;;;;;5054118;28;20048;-68
2022/07/07 03:00:25;;;;;;;9.63;5.00;;;17.50;99.90;;;;;;5057158;28;20105;-72
2022/07/07 03:02:55;;;;;;;6.70;4.68;;;17.40;99.90;;;;;;5055074;28;20017;-72
2022/07/07 03:05:21;;;;;;;10.50;5.97;;;17.40;99.90;;;;;;5050676;28;20043;-69
2022/07/07 03:07:48;;;;;;;11.70;5.95;;;17.40;99.90;;;;;;5055236;28;20534;-71
2022/07/07 03:10:13;;;;;;;8.50;5.40;;;17.40;99.90;;;;;;5053439;28;20029;-71
2022/07/07 03:12:39;;;;;;;7.13;4.90;;;17.40;99.90;;;;;;5053908;28;20032;-70
2022/07/07 03:15:06;;;;;;;7.07;5.50;;;17.40;99.90;;;;;;5053552;28;20529;-71
2022/07/07 03:17:32;;;;;;;7.35;5.07;;;17.40;99.90;;;;;;5054032;28;20107;-69
2022/07/07 03:19:58;;;;;;;6.60;4.95;;;17.50;99.90;;;;;;5053582;28;20107;-70
2022/07/07 03:22:24;;;;;;;8.23;5.32;;;17.50;99.90;;;;;;5053641;28;20591;-70
2022/07/07 03:24:50;;;;;;;8.48;4.95;;;17.50;99.90;;;;;;5053625;28;20025;-70
2022/07/07 03:27:16;;;;;;;8.88;5.50;;;17.50;99.90;;;;;;5054443;28;20490;-68
2022/07/07 03:29:41;;;;;;;8.35;5.53;;;17.50;99.90;;;;;;5053358;28;20017;-71
2022/07/07 03:32:08;;;;;;;9.75;5.75;;;17.70;99.90;;;;;;5053483;28;20029;-65
2022/07/07 03:34:34;;;;;;;7.78;5.25;;;17.70;99.90;;;;;;5049721;28;20024;-71
2022/07/07 03:36:59;;;;;;;6.95;5.05;;;17.70;99.90;;;;;;5048143;28;20033;-70
2022/07/07 03:39:25;;;;;;;10.68;4.97;;;17.70;99.90;;;;;;5051750;28;20025;-67
2022/07/07 03:41:51;;;;;;;8.85;5.38;;;17.80;99.90;;;;;;5053018;28;20545;-69
2022/07/07 03:44:17;;;;;;;9.57;5.13;;;17.80;99.90;;;;;;5056431;28;20029;-72
2022/07/07 03:46:44;;;;;;;9.32;5.88;;;17.80;99.90;;;;;;5053355;28;20025;-70
2022/07/07 03:49:10;;;;;;;10.32;4.75;;;18.60;99.90;;;;;;5052866;28;20379;-70
2022/07/07 03:51:36;;;;;;;6.20;4.68;;;19.70;99.90;;;;;;5053366;28;20025;-70
2022/07/07 03:54:03;;;;;;;9.10;4.53;;;20.40;99.90;;;;;;5052810;28;20046;-69
2022/07/07 03:56:28;;;;;;;7.85;4.95;;;21.10;99.90;;;;;;5052849;28;20371;-73
2022/07/07 03:58:54;;;;;;;7.90;5.15;;;21.60;99.90;;;;;;5052825;28;20021;-70
2022/07/07 04:01:22;;;;;;;6.28;4.60;;;;;;;;;;5052768;28;20037;-71
2022/07/07 04:03:48;;;;;;;10.27;4.55;;;22.20;99.90;;;;;;5052778;28;20017;-68
2022/07/07 04:06:14;;;;;;;5.78;3.83;;;22.80;99.00;;;;;;5052235;28;20021;-68
2022/07/07 04:08:40;;;;;;;6.85;4.22;;;23.10;97.60;;;;;;5059671;28;20024;-71
2022/07/07 04:11:05;;;;;;;7.18;4.72;;;23.10;99.90;;;;;;5062903;28;20065;-68
2022/07/07 04:13:34;;;;;;;7.22;4.47;;;;;;;;;;5069064;28;20390;-73
2022/07/07 04:16:00;;;;;;;6.32;4.20;;;;;;;;;;5071603;28;20479;-65
2022/07/07 04:18:26;;;;;;;7.20;4.75;;;23.60;98.10;;;;;;5073302;28;20017;-63
2022/07/07 04:20:52;;;;;;;8.20;4.55;;;24.20;99.00;;;;;;5073336;28;20025;-73
2022/07/07 04:23:18;;;;;;;8.10;3.97;;;25.00;94.80;;;;;;5072867;28;20028;-70
2022/07/07 04:25:44;;;;;;;5.90;3.95;;;;;;;;;;5072053;28;20451;-73
2022/07/07 04:28:10;;;;;;;9.23;4.05;;;26.00;94.70;;;;;;5073851;28;20116;-70
2022/07/07 04:30:36;;;;;;;7.30;4.18;;;25.40;93.20;;;;;;5073704;28;20483;-72
2022/07/07 04:33:02;;;;;;;10.75;4.40;;;25.80;94.90;;;;;;5073414;28;20063;-72
2022/07/07 04:35:28;;;;;;;8.40;4.63;;;26.20;92.10;;;;;;5073290;28;20123;-71
2022/07/07 04:37:54;;;;;;;8.52;4.18;;;26.10;92.30;;;;;;5072933;28;20024;-73
2022/07/07 04:40:20;;;;;;;5.75;4.30;;;25.90;91.30;;;;;;5073315;28;20538;-73
2022/07/07 04:42:45;;;;;;;9.80;4.80;;;25.30;92.40;;;;;;5073075;28;20021;-71
2022/07/07 04:45:11;;;;;;;5.50;4.18;;;26.30;95.20;;;;;;5073102;28;20032;-72
2022/07/07 04:47:41;;;;;;;12.70;5.07;;;26.60;91.90;;;;;;5073150;28;20139;-72
2022/07/07 04:50:11;;;;;;;9.75;4.57;;;25.80;93.40;;;;;;5073462;28;20526;-71
2022/07/07 04:52:38;;;;;;;7.63;4.18;;;25.80;92.80;;;;;;5073325;28;20422;-69
2022/07/07 04:55:04;;;;;;;5.18;3.55;;;26.30;92.30;;;;;;5072383;28;20478;-65
2022/07/07 04:57:30;;;;;;;5.72;3.85;;;26.30;91.10;;;;;;5073004;28;20079;-69
2022/07/07 04:59:56;;;;;;;6.85;3.63;;;25.90;92.30;;;;;;5072967;28;20027;-70
2022/07/07 05:02:22;;;;;;;6.43;3.92;;;25.40;92.60;;;;;;5072701;28;20032;-71
2022/07/07 05:04:51;;;;;;;5.90;3.70;;;23.90;94.50;;;;;;5072588;28;20024;-70
2022/07/07 05:07:17;;;;;;;5.25;3.85;;;23.90;98.60;;;;;;5068234;28;20028;-69
2022/07/07 05:09:43;;;;;;;6.65;3.88;;;23.50;99.70;;;;;;5069105;28;20186;-69
2022/07/07 05:12:10;;;;;;;7.38;3.83;;;;;;;;;;5069762;28;20045;-71
2022/07/07 05:14:35;;;;;;;5.03;3.60;;;22.90;99.90;;;;;;5070161;28;20525;-72
2022/07/07 05:17:01;;;;;;;8.60;4.15;;;22.70;99.80;;;;;;5072276;28;20020;-72
2022/07/07 05:19:27;;;;;;;11.20;4.82;;;22.40;99.90;;;;;;5072325;28;20029;-71
2022/07/07 05:21:53;;;;;;;7.07;4.15;;;22.60;99.90;;;;;;5072218;28;20043;-71
2022/07/07 05:24:20;;;;;;;5.75;4.03;;;22.30;99.90;;;;;;5072337;28;20039;-71
2022/07/07 05:26:47;;;;;;;6.88;4.22;;;22.50;99.90;;;;;;5072063;28;20063;-70
2022/07/07 05:29:13;;;;;;;8.15;4.38;;;22.40;99.90;;;;;;5072532;28;20024;-71
2022/07/07 05:31:39;;;;;;;7.90;4.35;;;22.30;99.90;;;;;;5071720;28;20108;-72
2022/07/07 05:34:05;;;;;;;5.10;3.90;;;22.40;99.90;;;;;;5072355;28;20119;-71
2022/07/07 05:36:32;;;;;;;5.53;3.80;;;22.60;99.90;;;;;;5072366;28;20036;-72
2022/07/07 05:38:58;;;;;;;6.43;4.40;;;22.70;99.90;;;;;;5071853;28;20524;-70
2022/07/07 05:41:24;;;;;;;4.70;3.97;;;22.60;99.80;;;;;;5071944;28;20040;-67
2022/07/07 05:43:50;;;;;;;5.88;3.75;;;22.80;99.90;;;;;;5071968;28;20021;-70
2022/07/07 05:46:16;;;;;;;7.00;3.65;;;22.90;99.90;;;;;;5071432;28;20033;-71
2022/07/07 05:48:41;;;;;;;4.65;3.17;;;23.20;98.80;;;;;;5072058;28;20012;-71
2022/07/07 05:51:07;;;;;;;4.60;3.60;;;23.20;96.80;;;;;;5071894;28;20036;-72
2022/07/07 05:53:33;;;;;;;5.78;3.72;;;23.20;97.90;;;;;;5071914;28;20033;-63
2022/07/07 05:55:59;;;;;;;10.23;3.70;;;23.30;96.10;;;;;;5071888;28;20107;-72
2022/07/07 05:58:25;;;;;;;4.18;3.35;;;23.40;95.90;;;;;;5072076;28;20021;-72
2022/07/07 06:00:51;;;;;;;5.55;3.45;;;23.50;96.10;;;;;;5071892;28;20043;-71
2022/07/07 06:03:17;;;;;;;5.22;3.15;;;23.70;98.10;;;;;;5072188;28;20021;-71
2022/07/07 06:05:43;;;;;;;4.10;3.08;;;23.70;95.10;;;;;;5071640;28;20021;-72
2022/07/07 06:08:09;;;;;;;5.75;3.47;;;23.80;95.00;;;;;;5071760;28;20029;-66
2022/07/07 06:10:36;;;;;;;4.32;3.20;;;23.90;94.50;;;;;;5071197;28;20055;-68
2022/07/07 06:13:02;;;;;;;4.85;3.20;;;24.30;93.30;;;;;;5071893;28;20272;-71
2022/07/07 06:15:32;;;;;;;4.82;3.60;;;24.10;92.50;;;;;;5070941;28;20086;-69
2022/07/07 06:18:02;;;;;;;7.32;3.60;;;24.10;92.50;;;;;;5063004;28;20024;-68
2022/07/07 06:20:29;;;;;;;8.20;3.00;;;24.10;94.90;;;;;;5065834;28;20042;-70
2022/07/07 06:22:55;;;;;;;6.47;3.85;;;24.40;94.60;;;;;;5070202;28;20024;-72
2022/07/07 06:25:21;;;;;;;5.63;2.90;;;24.50;94.60;;;;;;5072171;28;20079;-70
2022/07/07 06:27:48;;;;;;;8.45;3.47;;;24.50;93.60;;;;;;5075113;28;20029;-68
2022/07/07 06:30:13;;;;;;;6.90;3.45;;;24.50;94.30;;;;;;5074346;28;20043;-70
2022/07/07 06:32:39;;;;;;;6.38;3.17;;;24.60;93.10;;;;;;5075131;28;20028;-67
2022/07/07 06:35:06;;;;;;;7.05;3.70;;;24.70;94.40;;;;;;5075106;28;20047;-71
2022/07/07 06:37:33;;;;;;;6.45;3.50;;;24.70;92.30;;;;;;5075727;28;20024;-69
2022/07/07 06:39:59;;;;;;;5.97;3.42;;;24.60;92.90;;;;;;5074546;28;20078;-71
2022/07/07 06:42:25;;;;;;;7.05;3.60;;;24.80;94.80;;;;;;5075498;28;20033;-69
2022/07/07 06:45:00;;;;;;;3.53;2.80;;;25.20;94.50;;;;;;5073787;28;20039;-70
2022/07/07 06:47:26;;;;;;;5.40;3.28;;;25.00;92.20;;;;;;5074303;28;20021;-71
2022/07/07 06:49:52;;;;;;;6.25;2.90;;;25.20;92.40;;;;;;5073989;28;20020;-66
2022/07/07 06:52:19;;;;;;;4.78;3.17;;;25.00;92.10;;;;;;5074821;28;20055;-70
2022/07/07 06:54:45;;;;;;;3.15;2.83;;;25.00;93.60;;;;;;5075018;28;20029;-71
2022/07/07 06:57:11;;;;;;;5.78;2.95;;;25.20;95.10;;;;;;5075075;28;20032;-70
2022/07/07 06:59:37;;;;;;;8.48;3.15;;;25.40;92.90;;;;;;5075319;28;20366;-72
2022/07/07 07:02:03;;;;;;;4.40;3.08;;;25.60;93.50;;;;;;5074744;28;20044;-70
2022/07/07 07:04:29;;;;;;;7.07;3.17;;;25.60;91.50;;;;;;5074570;28;20017;-71
2022/07/07 07:06:55;;;;;;;3.00;2.67;;;25.40;92.00;;;;;;5074828;28;20035;-72
2022/07/07 07:09:20;;;;;;;5.18;2.72;;;25.20;91.90;;;;;;5074355;28;20463;-73
2022/07/07 07:11:48;;;;;;;4.20;3.28;;;25.40;90.50;;;;;;5074163;28;20491;-70
2022/07/07 07:14:13;;;;;;;7.32;3.00;;;25.30;92.20;;;;;;5072560;28;20036;-71
2022/07/07 07:16:40;;;;;;;3.35;2.45;;;25.50;94.60;;;;;;5074271;28;20043;-71
2022/07/07 07:19:06;;;;;;;6.60;3.22;;;25.70;92.10;;;;;;5073619;28;20024;-70
2022/07/07 07:21:32;;;;;;;7.28;3.10;;;25.80;92.80;;;;;;5071477;28;20021;-71
2022/07/07 07:23:58;;;;;;;4.75;2.55;;;25.90;92.40;;;;;;5069642;28;20025;-71
2022/07/07 07:26:24;;;;;;;5.13;3.20;;;;;;;;;;5074433;28;20568;-70
2022/07/07 07:28:50;;;;;;;4.95;3.05;;;26.50;92.40;;;;;;5073974;28;20029;-70
2022/07/07 07:31:16;;;;;;;5.03;3.17;;;26.60;92.20;;;;;;5073665;28;20070;-72
2022/07/07 07:33:42;;;;;;;3.50;2.50;;;;;;;;;;5074444;28;20352;-72
2022/07/07 07:36:09;;;;;;;5.45;2.58;;;26.80;97.30;;;;;;5074064;28;20091;-72
2022/07/07 07:38:37;;;;;;;3.22;2.45;;;26.70;96.90;;;;;;5073285;28;20048;-70
2022/07/07 07:41:04;;;;;;;3.92;2.55;;;26.70;98.40;;;;;;5074384;28;20030;-71
2022/07/07 07:43:30;;;;;;;3.03;2.47;;;26.70;97.50;;;;;;5074096;28;20044;-72
2022/07/07 07:45:56;;;;;;;2.85;2.42;;;26.90;99.00;;;;;;5070920;28;20503;-71
2022/07/07 07:48:22;;;;;;;4.07;2.95;;;27.00;99.90;;;;;;5073863;28;20035;-72
2022/07/07 07:50:49;;;;;;;4.40;2.85;;;27.00;93.00;;;;;;5073828;28;20033;-72
2022/07/07 07:53:16;;;;;;;3.33;2.30;;;;;;;;;;5074002;28;20024;-71
2022/07/07 07:55:44;;;;;;;2.47;1.90;;;27.20;99.30;;;;;;5074478;28;20059;-72
2022/07/07 07:58:10;;;;;;;5.22;2.40;;;27.30;88.10;;;;;;5074111;28;20020;-72
2022/07/07 08:00:36;;;;;;;5.70;2.28;;;27.40;88.70;;;;;;5072690;28;20102;-70
2022/07/07 08:03:02;;;;;;;6.45;2.42;;;27.30;90.50;;;;;;5073501;28;20021;-72
2022/07/07 08:05:29;;;;;;;5.45;2.35;;;27.10;89.30;;;;;;5074318;28;20028;-71
2022/07/07 08:07:55;;;;;;;3.50;2.13;;;27.30;89.50;;;;;;5074277;28;20059;-69
2022/07/07 08:10:21;;;;;;;2.80;2.20;;;27.10;91.70;;;;;;5082203;28;20064;-71
2022/07/07 08:12:47;;;;;;;2.65;1.80;;;27.20;88.50;;;;;;5073766;28;20507;-62
2022/07/07 08:15:14;;;;;;;2.25;1.60;;;27.30;89.40;;;;;;5074138;28;20064;-63
2022/07/07 08:17:40;;;;;;;5.95;2.22;;;27.30;90.10;;;;;;5073949;28;20020;-71
2022/07/07 08:20:06;;;;;;;2.22;1.98;;;;;;;;;;5073354;28;20036;-71
2022/07/07 08:22:33;;;;;;;3.38;1.80;;;27.60;88.50;;;;;;5074062;28;20013;-72
2022/07/07 08:24:59;;;;;;;3.03;2.13;;;27.80;90.10;;;;;;5072398;28;20037;-70
2022/07/07 08:27:25;;;;;;;2.83;2.00;;;27.60;90.90;;;;;;5065835;28;20043;-71
2022/07/07 08:29:51;;;;;;;2.70;1.80;;;27.80;91.00;;;;;;5070326;28;20046;-69
2022/07/07 08:32:17;;;;;;;4.75;1.95;;;27.70;90.30;;;;;;5056048;28;20096;-66
2022/07/07 08:34:44;;;;;;;3.35;1.80;;;27.60;88.20;;;;;;5071057;28;20025;-71
2022/07/07 08:37:10;;;;;;;4.25;2.38;;;27.50;88.70;;;;;;5086063;28;20021;-72
2022/07/07 08:39:36;;;;;;;3.05;2.03;;;;;;;;;;5074423;28;20519;-70
2022/07/07 08:42:03;;;;;;;2.13;1.92;;;28.10;90.70;;;;;;5073804;28;20122;-72
2022/07/07 08:44:29;;;;;;;1.75;1.60;;;27.90;90.50;;;;;;5079827;28;20114;-71
2022/07/07 08:46:55;;;;;;;2.22;1.80;;;27.90;90.30;;;;;;5075018;28;20016;-70
2022/07/07 08:49:21;;;;;;;1.95;1.70;;;27.80;88.20;;;;;;5074862;28;20033;-73
2022/07/07 08:51:47;;;;;;;1.77;1.60;;;27.80;90.20;;;;;;5083435;28;20488;-70
2022/07/07 08:54:16;;;;;;;4.50;1.75;;;28.00;91.00;;;;;;5071117;28;20368;-71
2022/07/07 08:56:43;;;;;;;3.95;1.92;;;27.90;90.10;;;;;;5072453;28;20107;-72
2022/07/07 08:59:10;;;;;;;2.00;1.90;;;27.80;92.00;;;;;;5069852;28;20032;-70
2022/07/07 09:01:37;;;;;;;2.92;1.95;;;27.90;87.20;;;;;;5055219;28;20024;-69
2022/07/07 09:04:04;;;;;;;5.05;2.15;;;27.80;90.40;;;;;;5062119;28;20029;-73
2022/07/07 09:06:30;;;;;;;3.35;1.77;;;27.70;91.00;;;;;;5063212;28;20026;-72
2022/07/07 09:08:57;;;;;;;9.88;2.03;;;28.00;89.20;;;;;;5071170;28;20059;-70
2022/07/07 09:11:30;;;;;;;3.90;2.05;;;27.90;88.90;;;;;;5072458;28;20427;-72
2022/07/07 09:14:13;;;;;;;1.80;1.70;;;28.00;89.50;;;;;;5072357;28;20032;-71
2022/07/07 09:16:39;;;;;;;3.83;1.88;;;28.10;85.50;;;;;;5071907;28;20025;-73
2022/07/07 09:19:19;;;;;;;2.55;1.83;;;27.90;90.00;;;;;;5061502;28;20036;-71
2022/07/07 09:21:46;;;;;;;3.10;1.77;;;28.10;90.10;;;;;;5059967;28;20470;-72
2022/07/07 09:24:12;;;;;;;3.42;2.05;;;28.00;91.30;;;;;;5050929;28;20425;-72
2022/07/07 09:26:41;;;;;;;3.03;1.80;;;27.90;87.60;;;;;;5057385;28;20029;-71
2022/07/07 09:29:09;;;;;;;2.30;1.80;;;28.10;87.40;;;;;;5054392;28;20013;-72
2022/07/07 09:31:53;;;;;;;4.22;2.03;;;27.90;88.40;;;;;;5051415;28;20037;-70
2022/07/07 09:34:20;;;;;;;3.20;1.85;;;28.00;90.10;;;;;;5054497;28;20356;-69
2022/07/07 09:39:42;;;;;;;2.10;1.83;;;;;;;;;;5071428;28;20105;-72
2022/07/07 09:42:26;;;;;;;3.33;1.73;;;28.40;84.30;;;;;;5071936;28;20158;-73
2022/07/07 09:44:57;;;;;;;2.42;2.20;;;29.00;92.50;;;;;;5070607;28;20233;-70
2022/07/07 09:47:24;;;;;;;4.45;2.10;;;28.80;87.60;;;;;;5061533;28;20028;-72
2022/07/07 09:50:01;;;;;;;6.05;2.13;;;28.40;85.60;;;;;;5059560;28;20049;-70
2022/07/07 09:52:28;;;;;;;2.45;1.60;;;28.30;87.20;;;;;;5068458;28;20451;-69
2022/07/07 09:54:55;;;;;;;4.90;2.22;;;28.40;87.70;;;;;;5071694;28;20032;-69
2022/07/07 09:57:21;;;;;;;4.03;2.03;;;28.70;90.00;;;;;;5070427;28;20083;-71
2022/07/07 09:59:47;;;;;;;2.97;2.08;;;28.70;90.20;;;;;;5071684;28;20422;-75
2022/07/07 10:02:31;;;;;;;2.40;1.88;;;28.20;85.90;;;;;;5071830;28;20116;-74
2022/07/07 10:05:00;;;;;;;3.20;1.83;;;28.50;89.50;;;;;;5071419;28;20624;-74
2022/07/07 10:07:30;;;;;;;2.78;1.90;;;28.40;86.40;;;;;;5071940;28;20021;-74
2022/07/07 10:10:01;;;;;;;2.33;1.83;;;28.70;89.30;;;;;;5071356;28;20123;-68
2022/07/07 10:12:28;;;;;;;3.88;1.98;;;28.60;84.40;;;;;;5071334;28;20498;-73
2022/07/07 10:15:03;;;;;;;3.10;1.70;;;28.50;84.40;;;;;;5071470;28;20067;-68
2022/07/07 10:17:30;;;;;;;4.22;2.30;;;28.40;86.70;;;;;;5071540;28;20107;-67
2022/07/07 10:19:56;;;;;;;3.90;1.70;;;28.40;87.50;;;;;;5071692;28;20025;-69
2022/07/07 10:22:27;;;;;;;1.13;1.02;;;28.40;82.60;;;;;;5071278;28;20029;-67
2022/07/07 10:24:57;;;;;;;1.98;1.30;;;28.80;81.00;;;;;;5071764;28;20028;-73
2022/07/07 10:27:27;;;;;;;3.17;1.52;;;28.60;83.20;;;;;;5071202;28;20045;-74
2022/07/07 10:30:01;;;;;;;4.55;1.42;;;28.80;84.00;;;;;;5071279;28;20052;-73
2022/07/07 10:32:32;;;;;;;3.33;1.40;;;28.70;84.10;;;;;;5071308;28;20025;-74
2022/07/07 10:35:04;;;;;;;4.70;1.98;;;28.80;80.10;;;;;;5071274;28;20644;-72
2022/07/07 10:37:41;;;;;;;4.32;1.17;;;28.70;84.60;;;;;;5071385;28;20059;-71
2022/07/07 10:40:11;;;;;;;3.50;1.30;;;28.60;83.90;;;;;;5071383;28;20028;-71
2022/07/07 10:42:37;;;;;;;1.52;1.23;;;28.60;80.60;;;;;;5071187;28;20052;-71
2022/07/07 10:45:04;;;;;;;3.58;1.90;;;28.60;83.20;;;;;;5071460;28;20071;-73
2022/07/07 10:47:34;;;;;;;4.00;1.60;;;28.50;80.10;;;;;;5071538;28;20036;-71
2022/07/07 10:50:01;;;;;;;3.58;1.42;;;28.60;80.40;;;;;;5071429;28;20028;-72
2022/07/07 10:52:45;;;;;;;2.10;1.35;;;28.40;83.90;;;;;;5070079;28;20028;-73
2022/07/07 10:55:11;;;;;;;4.18;1.33;;;28.60;82.50;;;;;;5070812;28;20033;-71
2022/07/07 10:57:45;;;;;;;1.73;1.50;;;28.60;82.40;;;;;;5071310;28;20375;-73
2022/07/07 11:00:21;;;;;;;1.90;1.33;;;28.70;85.20;;;;;;5071222;28;20029;-71
2022/07/07 11:02:49;;;;;;;2.20;1.52;;;28.80;83.60;;;;;;5071212;28;20111;-71
2022/07/07 11:05:15;;;;;;;2.03;1.58;;;28.60;85.90;;;;;;5071414;28;20032;-72
2022/07/07 11:07:56;;;;;;;4.13;1.80;;;28.70;83.50;;;;;;5071500;28;20120;-72
2022/07/07 11:10:44;;;;;;;1.53;1.33;;;28.90;85.30;;;;;;5070550;28;20131;-70
2022/07/07 11:13:30;;;;;;;1.35;1.20;;;28.90;85.70;;;;;;5074186;28;20035;-73
2022/07/07 11:16:18;;;;;;;2.35;1.60;;;29.00;81.30;;;;;;5074512;28;20043;-73
2022/07/07 11:18:56;;;;;;;3.72;1.40;;;29.00;81.40;;;;;;5075110;28;20033;-74
2022/07/07 11:21:40;;;;;;;3.20;1.42;;;28.90;79.40;;;;;;5075026;28;20395;-72
2022/07/07 11:24:22;;;;;;;3.28;1.30;;;29.00;79.30;;;;;;5075062;28;20348;-74
2022/07/07 11:27:00;;;;;;;2.03;1.33;;;29.20;91.80;;;;;;5075052;28;20064;-75
2022/07/07 11:29:26;;;;;;;1.98;1.55;;;29.30;84.20;;;;;;5074436;28;20070;-74
2022/07/07 11:32:04;;;;;;;2.15;1.50;;;29.40;80.10;;;;;;5074766;28;20536;-75
2022/07/07 11:34:44;;;;;;;2.03;1.30;;;29.30;80.80;;;;;;5074701;28;20068;-72
2022/07/07 11:37:24;;;;;;;2.08;1.65;;;29.00;87.00;;;;;;5074679;28;20037;-74
2022/07/07 11:39:50;;;;;;;3.25;1.38;;;28.80;81.10;;;;;;5074745;28;20028;-74
2022/07/07 11:42:16;;;;;;;2.20;1.38;;;28.90;85.80;;;;;;5074397;28;20025;-74
2022/07/07 11:44:42;;;;;;;2.50;2.05;;;29.00;80.20;;;;;;5074528;28;20024;-75
2022/07/07 11:47:08;;;;;;;6.10;3.08;;;28.90;82.70;;;;;;5074695;28;20085;-75
2022/07/07 11:49:34;;;;;;;1.55;1.40;;;29.20;85.70;;;;;;5074528;28;20505;-75
2022/07/07 11:51:59;;;;;;;2.25;1.65;;;29.20;83.30;;;;;;5073380;28;20463;-75
2022/07/07 11:54:26;;;;;;;2.05;1.83;;;29.30;86.80;;;;;;5073460;28;20037;-74
2022/07/07 11:56:51;;;;;;;1.60;1.50;;;29.10;87.80;;;;;;5074115;28;20548;-74
2022/07/07 11:59:21;;;;;;;2.38;1.52;;;29.20;81.30;;;;;;5057965;28;20107;-74
2022/07/07 12:01:50;;;;;;;2.63;2.30;;;29.20;81.90;;;;;;5073245;28;20486;-74
2022/07/07 12:04:23;;;;;;;9.35;2.13;;;29.00;80.50;;;;;;5074095;28;20021;-74
2022/07/07 12:06:52;;;;;;;2.40;1.67;;;29.10;83.90;;;;;;5074425;28;20032;-75
2022/07/07 12:09:19;;;;;;;4.25;1.73;;;29.10;80.10;;;;;;5073459;28;20036;-74
2022/07/07 12:11:45;;;;;;;2.13;1.92;;;29.10;82.90;;;;;;5074053;28;20772;-73
2022/07/07 12:14:12;;;;;;;2.72;1.85;;;28.90;82.10;;;;;;5073557;28;20036;-71
2022/07/07 12:16:45;;;;;;;1.92;1.75;;;29.20;83.40;;;;;;5074057;28;20024;-73
2022/07/07 12:19:11;;;;;;;1.65;1.45;;;29.40;82.80;;;;;;5073566;28;20025;-74
2022/07/07 12:22:03;;;;;;;2.13;1.73;;;29.50;85.50;;;;;;5073629;28;20112;-74
2022/07/07 12:24:33;;;;;;;1.95;1.50;;;29.40;85.90;;;;;;5067012;28;20037;-74
2022/07/07 12:26:58;;;;;;;4.50;1.80;;;29.30;82.30;;;;;;5073374;28;20066;-71
2022/07/07 12:29:25;;;;;;;2.05;1.45;;;28.90;84.00;;;;;;5072771;28;20036;-65
2022/07/07 12:31:51;;;;;;;2.80;1.45;;;29.00;83.40;;;;;;5073480;28;20108;-72
2022/07/07 12:34:24;;;;;;;2.72;1.65;;;29.10;84.30;;;;;;5073242;28;20032;-74
2022/07/07 12:36:51;;;;;;;6.25;1.77;;;29.10;81.40;;;;;;5073252;28;20040;-74
2022/07/07 12:39:17;;;;;;;3.53;1.58;;;29.40;85.60;;;;;;5072829;28;20032;-73
2022/07/07 12:41:42;;;;;;;8.23;1.88;;;29.40;81.40;;;;;;5073338;28;20029;-74
2022/07/07 12:44:19;;;;;;;6.43;1.70;;;29.50;82.30;;;;;;5073485;28;20471;-74
2022/07/07 12:46:46;;;;;;;3.92;1.92;;;29.30;83.20;;;;;;5073578;28;20024;-74
2022/07/07 12:49:12;;;;;;;3.58;1.88;;;29.20;80.70;;;;;;5073476;28;20024;-74
2022/07/07 12:51:45;;;;;;;3.50;1.55;;;29.20;81.60;;;;;;5073384;28;20025;-74
2022/07/07 12:54:27;;;;;;;3.58;1.83;;;29.20;80.40;;;;;;5072654;28;20340;-75
2022/07/07 12:57:02;;;;;;;2.95;1.70;;;29.40;81.50;;;;;;5072867;28;20033;-74